createdAt,value
2023-04-06T00:02:29.130Z,100165.80
2023-04-06T00:05:01.856Z,100164.06
2023-04-06T00:07:35.456Z,100165.79
2023-04-06T00:10:09.779Z,100162.76
2023-04-06T00:12:42.110Z,100160.39
2023-04-06T00:15:15.027Z,100152.90
2023-04-06T00:17:47.255Z,100155.98
2023-04-06T00:20:20.571Z,100153.42
2023-04-06T00:22:52.803Z,100153.11
2023-04-06T00:25:25.032Z,100150.43
2023-04-06T00:27:57.229Z,100150.38
2023-04-06T00:30:29.732Z,100148.95
2023-04-06T00:33:02.099Z,100148.20
2023-04-06T00:35:34.465Z,100147.10
2023-04-06T00:38:06.675Z,100147.84
2023-04-06T00:40:40.694Z,100150.27
2023-04-06T00:43:13.463Z,100145.03
2023-04-06T00:45:46.311Z,100146.75
2023-04-06T00:48:18.862Z,100149.73
2023-04-06T00:50:51.358Z,100150.84
2023-04-06T00:53:23.840Z,100156.34
2023-04-06T00:55:56.590Z,100155.95
2023-04-06T00:58:29.353Z,100155.13
2023-04-06T01:01:07.597Z,100154.23
2023-04-06T01:03:43.260Z,100151.87
2023-04-06T01:06:17.189Z,100152.62
2023-04-06T01:08:50.652Z,100154.38
2023-04-06T01:11:25.735Z,100155.10
2023-04-06T01:13:59.238Z,100154.17
2023-04-06T01:16:41.552Z,100158.59
2023-04-06T01:19:16.712Z,100154.20
2023-04-06T01:21:54.378Z,100152.40
2023-04-06T01:24:35.804Z,100151.91
2023-04-06T01:27:31.397Z,100153.60
2023-04-06T01:30:22.841Z,100151.44
2023-04-06T01:33:02.417Z,100150.14
2023-04-06T01:36:01.393Z,100148.95
2023-04-06T01:38:34.052Z,100150.79
2023-04-06T01:41:06.337Z,100151.30
2023-04-06T01:43:49.342Z,100151.41
2023-04-06T01:46:21.838Z,100151.02
2023-04-06T01:48:54.882Z,100146.23
2023-04-06T01:51:34.543Z,100145.70
2023-04-06T01:54:08.592Z,100143.77
2023-04-06T01:57:04.172Z,100143.86
2023-04-06T01:59:39.715Z,100145.27
2023-04-06T02:02:16.563Z,100141.81
2023-04-06T02:04:57.066Z,100145.38
2023-04-06T02:07:29.372Z,100142.64
2023-04-06T02:10:01.947Z,100146.48
2023-04-06T02:12:40.967Z,100149.27
2023-04-06T02:15:15.651Z,100150.42
2023-04-06T02:17:48.253Z,100143.96
2023-04-06T02:20:20.659Z,100146.64
2023-04-06T02:22:52.802Z,100141.70
2023-04-06T02:25:25.609Z,100144.38
2023-04-06T02:27:57.848Z,100143.87
2023-04-06T02:30:30.217Z,100147.30
2023-04-06T02:33:02.947Z,100147.11
2023-04-06T02:35:37.465Z,100144.92
2023-04-06T02:38:09.890Z,100145.02
2023-04-06T02:40:42.153Z,100146.17
2023-04-06T02:43:26.719Z,100142.41
2023-04-06T02:46:08.868Z,100141.70
2023-04-06T02:48:43.489Z,100141.84
2023-04-06T02:51:15.925Z,100141.36
2023-04-06T02:53:49.979Z,100138.52
2023-04-06T02:56:22.760Z,100142.50
2023-04-06T02:58:56.253Z,100142.20
2023-04-06T03:01:30.502Z,100144.64
2023-04-06T03:04:04.934Z,100143.19
2023-04-06T03:06:37.606Z,100143.73
2023-04-06T03:09:16.977Z,100148.35
2023-04-06T03:11:49.763Z,100148.27
2023-04-06T03:14:27.074Z,100149.80
2023-04-06T03:16:59.575Z,100150.88
2023-04-06T03:19:32.122Z,100152.83
2023-04-06T03:22:05.527Z,100155.07
2023-04-06T03:24:37.799Z,100158.19
2023-04-06T03:27:12.316Z,100153.70
2023-04-06T03:29:46.376Z,100151.46
2023-04-06T03:32:20.128Z,100150.58
2023-04-06T03:34:52.565Z,100153.15
2023-04-06T03:37:24.903Z,100150.83
2023-04-06T03:39:58.985Z,100147.35
2023-04-06T03:42:31.985Z,100149.31
2023-04-06T03:45:10.156Z,100148.55
2023-04-06T03:47:44.180Z,100146.92
2023-04-06T03:50:16.682Z,100154.99
2023-04-06T03:52:49.941Z,100158.50
2023-04-06T03:55:22.326Z,100163.47
2023-04-06T03:57:54.552Z,100164.64
2023-04-06T04:00:26.989Z,100160.88
2023-04-06T04:03:02.998Z,100159.80
2023-04-06T04:05:35.415Z,100158.34
2023-04-06T04:08:08.025Z,100155.90
2023-04-06T04:10:40.195Z,100159.87
2023-04-06T04:13:12.378Z,100157.96
2023-04-06T04:15:45.334Z,100158.90
2023-04-06T04:18:17.693Z,100158.00
2023-04-06T04:20:49.989Z,100162.11
2023-04-06T04:23:22.412Z,100162.02
2023-04-06T04:25:54.734Z,100163.66
2023-04-06T04:28:27.107Z,100165.44
2023-04-06T04:31:00.494Z,100172.33
2023-04-06T04:33:33.458Z,100169.52
2023-04-06T04:36:07.897Z,100167.46
2023-04-06T04:38:44.357Z,100169.36
2023-04-06T04:41:16.643Z,100169.77
2023-04-06T04:43:49.362Z,100168.11
2023-04-06T04:46:22.552Z,100166.54
2023-04-06T04:48:55.074Z,100164.33
2023-04-06T04:51:27.482Z,100166.45
2023-04-06T04:54:28.744Z,100168.84
2023-04-06T04:57:01.500Z,100173.35
2023-04-06T04:59:47.112Z,100176.25
2023-04-06T05:02:23.673Z,100175.94
2023-04-06T05:05:06.987Z,100176.51
2023-04-06T05:07:39.212Z,100169.51
2023-04-06T05:10:13.688Z,100172.67
2023-04-06T05:12:54.514Z,100171.21
2023-04-06T05:15:26.721Z,100171.85
2023-04-06T05:18:01.518Z,100171.40
2023-04-06T05:20:38.275Z,100171.66
2023-04-06T05:23:10.839Z,100177.46
2023-04-06T05:25:43.213Z,100178.85
2023-04-06T05:28:24.567Z,100184.61
2023-04-06T05:30:58.220Z,100177.68
2023-04-06T05:33:31.190Z,100173.45
2023-04-06T05:36:15.310Z,100173.61
2023-04-06T05:38:51.423Z,100178.60
2023-04-06T05:41:34.313Z,100181.17
2023-04-06T05:44:06.729Z,100181.66
2023-04-06T05:46:41.019Z,100177.79
2023-04-06T05:49:13.851Z,100174.57
2023-04-06T05:51:46.100Z,100174.88
2023-04-06T05:54:18.723Z,100173.69
2023-04-06T05:56:51.132Z,100175.52
2023-04-06T05:59:23.600Z,100176.02
2023-04-06T06:01:56.525Z,100178.75
2023-04-06T06:04:29.192Z,100183.18
2023-04-06T06:07:02.570Z,100175.02
2023-04-06T06:09:44.223Z,100171.79
2023-04-06T06:12:27.340Z,100169.40
2023-04-06T06:15:00.091Z,100167.84
2023-04-06T06:17:33.050Z,100171.02
2023-04-06T06:20:06.703Z,100167.02
2023-04-06T06:22:39.023Z,100164.86
2023-04-06T06:25:12.607Z,100161.95
2023-04-06T06:27:44.943Z,100165.95
2023-04-06T06:30:18.968Z,100164.63
2023-04-06T06:32:53.759Z,100167.55
2023-04-06T06:35:26.217Z,100170.55
2023-04-06T06:37:58.440Z,100173.06
2023-04-06T06:40:31.983Z,100169.47
2023-04-06T06:43:04.558Z,100173.29
2023-04-06T06:45:49.308Z,100167.16
2023-04-06T06:48:21.666Z,100168.27
2023-04-06T06:50:54.124Z,100162.04
2023-04-06T06:53:26.988Z,100167.02
2023-04-06T06:55:59.352Z,100164.91
2023-04-06T06:58:32.718Z,100171.06
2023-04-06T07:01:06.369Z,100168.05
2023-04-06T07:03:39.788Z,100171.36
2023-04-06T07:06:12.582Z,100170.73
2023-04-06T07:08:46.474Z,100169.45
2023-04-06T07:11:18.999Z,100167.98
2023-04-06T07:13:51.211Z,100170.27
2023-04-06T07:16:24.306Z,100170.07
2023-04-06T07:18:56.826Z,100170.54
2023-04-06T07:21:29.400Z,100171.88
2023-04-06T07:24:01.770Z,100171.46
2023-04-06T07:26:34.123Z,100176.20
2023-04-06T07:29:06.360Z,100175.20
2023-04-06T07:31:39.013Z,100175.23
2023-04-06T07:34:11.529Z,100176.73
2023-04-06T07:36:46.105Z,100174.40
2023-04-06T07:39:19.236Z,100176.02
2023-04-06T07:41:52.032Z,100174.86
2023-04-06T07:44:24.412Z,100179.05
2023-04-06T07:46:56.585Z,100172.06
2023-04-06T07:49:29.176Z,100174.60
2023-04-06T07:52:02.056Z,100169.42
2023-04-06T07:54:34.406Z,100163.37
2023-04-06T07:57:06.901Z,100166.81
2023-04-06T07:59:39.316Z,100168.38
2023-04-06T08:02:11.766Z,100165.77
2023-04-06T08:04:45.719Z,100163.29
2023-04-06T08:07:18.261Z,100164.23
2023-04-06T08:09:51.526Z,100161.25
2023-04-06T08:12:24.019Z,100156.23
2023-04-06T08:14:57.940Z,100150.90
2023-04-06T08:17:31.786Z,100154.56
2023-04-06T08:20:05.416Z,100152.10
2023-04-06T08:22:37.721Z,100144.50
2023-04-06T08:25:10.988Z,100144.11
2023-04-06T08:27:43.358Z,100142.55
2023-04-06T08:30:16.893Z,100143.20
2023-04-06T08:32:49.146Z,100139.37
2023-04-06T08:35:21.732Z,100139.06
2023-04-06T08:37:54.043Z,100135.45
2023-04-06T08:40:26.553Z,100134.83
2023-04-06T08:43:03.234Z,100133.28
2023-04-06T08:45:35.695Z,100134.67
2023-04-06T08:48:09.407Z,100136.88
2023-04-06T08:50:42.295Z,100134.31
2023-04-06T08:53:16.158Z,100132.84
2023-04-06T08:55:49.290Z,100127.05
2023-04-06T08:58:35.279Z,100119.69
2023-04-06T09:01:15.131Z,100118.88
2023-04-06T09:03:49.238Z,100116.37
2023-04-06T09:06:22.011Z,100119.49
2023-04-06T09:08:54.260Z,100115.02
2023-04-06T09:11:26.763Z,100117.73
2023-04-06T09:13:59.923Z,100117.00
2023-04-06T09:16:43.717Z,100110.58
2023-04-06T09:19:16.489Z,100111.08
2023-04-06T09:21:48.770Z,100105.16
2023-04-06T09:24:26.587Z,100108.80
2023-04-06T09:26:58.794Z,100113.41
2023-04-06T09:29:31.016Z,100113.47
2023-04-06T09:32:08.936Z,100116.02
2023-04-06T09:34:42.487Z,100112.55
2023-04-06T09:37:19.412Z,100110.09
2023-04-06T09:39:53.336Z,100109.64
2023-04-06T09:42:33.693Z,100108.24
2023-04-06T09:45:08.608Z,100106.27
2023-04-06T09:47:46.520Z,100101.60
2023-04-06T09:50:21.252Z,100104.41
2023-04-06T09:52:56.599Z,100101.16
2023-04-06T09:55:33.057Z,100098.84
2023-04-06T09:58:09.313Z,100099.61
2023-04-06T10:00:51.735Z,100097.80
2023-04-06T10:03:38.813Z,100097.50
2023-04-06T10:06:17.839Z,100095.20
2023-04-06T10:08:52.338Z,100088.86
2023-04-06T10:11:25.740Z,100084.19
2023-04-06T10:13:59.153Z,100076.97
2023-04-06T10:16:33.185Z,100075.21
2023-04-06T10:19:12.661Z,100071.56
2023-04-06T10:21:51.056Z,100073.92
2023-04-06T10:24:23.668Z,100071.48
2023-04-06T10:27:04.319Z,100066.77
2023-04-06T10:29:49.756Z,100062.44
2023-04-06T10:32:22.373Z,100057.14
2023-04-06T10:34:54.782Z,100050.73
2023-04-06T10:37:27.068Z,100051.95
2023-04-06T10:39:59.806Z,100050.23
2023-04-06T10:42:41.965Z,100045.15
2023-04-06T10:45:21.151Z,100046.98
2023-04-06T10:47:54.590Z,100038.13
2023-04-06T10:50:27.212Z,100031.69
2023-04-06T10:53:10.895Z,100027.11
2023-04-06T10:55:45.775Z,100026.84
2023-04-06T10:58:18.483Z,100027.52
2023-04-06T11:00:51.860Z,100024.09
2023-04-06T11:03:24.264Z,100022.39
2023-04-06T11:05:56.736Z,100017.71
2023-04-06T11:08:33.723Z,100018.80
2023-04-06T11:11:12.010Z,100013.19
2023-04-06T11:13:46.931Z,100009.91
2023-04-06T11:16:21.023Z,100010.28
2023-04-06T11:18:57.249Z,100012.68
2023-04-06T11:21:40.691Z,100008.55
2023-04-06T11:24:16.397Z,100013.74
2023-04-06T11:26:52.481Z,100003.51
2023-04-06T11:29:26.743Z,100003.05
2023-04-06T11:32:03.285Z,100002.16
2023-04-06T11:34:38.388Z,99999.30
2023-04-06T11:37:14.054Z,99996.51
2023-04-06T11:39:53.627Z,99992.49
2023-04-06T11:42:31.153Z,99990.44
2023-04-06T11:45:09.702Z,99994.75
2023-04-06T11:47:44.011Z,99994.20
2023-04-06T11:50:18.038Z,99983.71
2023-04-06T11:53:04.231Z,99980.04
2023-04-06T11:55:41.832Z,99975.77
2023-04-06T11:58:14.491Z,99979.48
2023-04-06T12:00:47.986Z,99975.17
2023-04-06T12:03:20.964Z,99970.16
2023-04-06T12:05:53.523Z,99972.45
2023-04-06T12:08:29.235Z,99974.00
2023-04-06T12:11:01.788Z,99975.17
2023-04-06T12:13:34.632Z,99970.27
2023-04-06T12:16:08.008Z,99970.45
2023-04-06T12:18:40.692Z,99967.41
2023-04-06T12:21:13.518Z,99970.86
2023-04-06T12:23:46.508Z,99976.41
2023-04-06T12:26:18.718Z,99969.32
2023-04-06T12:28:52.184Z,99965.73
2023-04-06T12:31:26.712Z,99962.79
2023-04-06T12:33:58.987Z,99960.55
2023-04-06T12:36:32.566Z,99956.00
2023-04-06T12:39:05.442Z,99952.34
2023-04-06T12:41:38.285Z,99953.61
2023-04-06T12:44:10.759Z,99951.98
2023-04-06T12:46:44.552Z,99945.85
2023-04-06T12:49:19.747Z,99946.66
2023-04-06T12:51:52.185Z,99949.83
2023-04-06T12:54:24.532Z,99943.23
2023-04-06T12:56:57.754Z,99937.54
2023-04-06T12:59:35.710Z,99942.41
2023-04-06T13:02:09.016Z,99942.06
2023-04-06T13:04:41.531Z,99939.27
2023-04-06T13:07:13.873Z,99941.05
2023-04-06T13:09:49.264Z,99940.73
2023-04-06T13:12:23.554Z,99936.66
2023-04-06T13:14:55.798Z,99933.61
2023-04-06T13:17:29.594Z,99933.36
2023-04-06T13:20:02.364Z,99927.15
2023-04-06T13:22:34.918Z,99925.73
2023-04-06T13:25:08.336Z,99930.15
2023-04-06T13:27:40.750Z,99921.95
2023-04-06T13:30:16.515Z,99925.74
2023-04-06T13:32:50.663Z,99925.39
2023-04-06T13:35:23.519Z,99926.15
2023-04-06T13:37:58.093Z,99925.54
2023-04-06T13:40:30.556Z,99925.67
2023-04-06T13:43:03.084Z,99921.13
2023-04-06T13:45:35.806Z,99918.32
2023-04-06T13:48:08.734Z,99914.02
2023-04-06T13:50:41.948Z,99916.59
2023-04-06T13:53:14.465Z,99914.46
2023-04-06T13:55:54.426Z,99910.20
2023-04-06T13:58:27.082Z,99908.77
2023-04-06T14:01:03.832Z,99906.52
2023-04-06T14:03:36.286Z,99904.75
2023-04-06T14:06:29.806Z,99903.48
2023-04-06T14:09:03.988Z,99898.56
2023-04-06T14:11:36.471Z,99901.09
2023-04-06T14:14:08.787Z,99898.50
2023-04-06T14:16:41.217Z,99897.56
2023-04-06T14:19:14.162Z,99895.27
2023-04-06T14:21:46.965Z,99892.66
2023-04-06T14:24:20.164Z,99896.41
2023-04-06T14:26:52.745Z,99896.16
2023-04-06T14:29:25.478Z,99895.30
2023-04-06T14:32:01.238Z,99895.64
2023-04-06T14:34:33.482Z,99893.38
2023-04-06T14:37:05.958Z,99894.05
2023-04-06T14:39:38.370Z,99893.55
2023-04-06T14:42:10.801Z,99890.45
2023-04-06T14:44:44.201Z,99890.55
2023-04-06T14:47:21.388Z,99890.44
2023-04-06T14:49:55.613Z,99891.17
2023-04-06T14:52:29.981Z,99884.28
2023-04-06T14:55:03.543Z,99879.43
2023-04-06T14:57:36.040Z,99879.60
2023-04-06T15:00:10.669Z,99879.29
2023-04-06T15:02:44.656Z,99879.42
2023-04-06T15:05:17.291Z,99874.84
2023-04-06T15:07:49.509Z,99873.16
2023-04-06T15:10:22.564Z,99871.19
2023-04-06T15:12:56.533Z,99867.98
2023-04-06T15:15:31.158Z,99865.97
2023-04-06T15:18:06.484Z,99868.30
2023-04-06T15:20:42.135Z,99873.46
2023-04-06T15:23:17.111Z,99877.55
2023-04-06T15:25:51.978Z,99873.36
2023-04-06T15:28:26.746Z,99869.95
2023-04-06T15:31:04.507Z,99868.77
2023-04-06T15:33:39.724Z,99865.38
2023-04-06T15:36:27.684Z,99868.93
2023-04-06T15:39:02.870Z,99874.73
2023-04-06T15:41:38.335Z,99876.19
2023-04-06T15:44:17.820Z,99870.89
2023-04-06T15:46:53.169Z,99872.02
2023-04-06T15:49:27.082Z,99877.31
2023-04-06T15:52:00.163Z,99875.27
2023-04-06T15:54:34.230Z,99872.13
2023-04-06T15:57:08.446Z,99874.79
2023-04-06T15:59:41.370Z,99872.80
2023-04-06T16:02:13.935Z,99873.73
2023-04-06T16:04:46.625Z,99873.22
2023-04-06T16:07:19.386Z,99878.46
2023-04-06T16:09:52.287Z,99882.43
2023-04-06T16:12:26.669Z,99878.80
2023-04-06T16:15:00.262Z,99873.77
2023-04-06T16:17:32.649Z,99877.23
2023-04-06T16:20:06.104Z,99875.90
2023-04-06T16:22:39.011Z,99877.13
2023-04-06T16:25:12.934Z,99876.88
2023-04-06T16:27:44.981Z,99874.02
2023-04-06T16:30:17.604Z,99876.83
2023-04-06T16:32:51.972Z,99875.17
2023-04-06T16:35:26.300Z,99876.13
2023-04-06T16:37:58.645Z,99871.95
2023-04-06T16:40:31.356Z,99870.23
2023-04-06T16:43:04.255Z,99870.99
2023-04-06T16:45:36.572Z,99871.03
2023-04-06T16:48:09.269Z,99875.27
2023-04-06T16:50:41.580Z,99871.17
2023-04-06T16:53:13.981Z,99876.87
2023-04-06T16:55:46.461Z,99873.08
2023-04-06T16:58:18.846Z,99878.33
2023-04-06T17:00:51.366Z,99874.53
2023-04-06T17:03:23.529Z,99878.70
2023-04-06T17:05:56.592Z,99873.29
2023-04-06T17:08:29.149Z,99871.80
2023-04-06T17:11:04.600Z,99876.52
2023-04-06T17:13:37.682Z,99874.14
2023-04-06T17:16:10.593Z,99878.02
2023-04-06T17:18:42.931Z,99879.41
2023-04-06T17:21:17.226Z,99882.00
2023-04-06T17:23:50.211Z,99884.42
2023-04-06T17:26:22.992Z,99886.81
2023-04-06T17:28:55.606Z,99888.15
2023-04-06T17:31:28.484Z,99887.56
2023-04-06T17:34:01.010Z,99892.94
2023-04-06T17:36:34.197Z,99894.52
2023-04-06T17:39:06.766Z,99896.70
2023-04-06T17:41:39.553Z,99900.52
2023-04-06T17:44:11.731Z,99901.09
2023-04-06T17:46:44.400Z,99907.80
2023-04-06T17:49:16.808Z,99912.23
2023-04-06T17:51:49.859Z,99910.02
2023-04-06T17:54:22.307Z,99914.12
2023-04-06T17:56:55.022Z,99921.75
2023-04-06T17:59:27.717Z,99920.64
2023-04-06T18:02:00.872Z,99921.85
2023-04-06T18:04:34.029Z,99925.17
2023-04-06T18:07:06.773Z,99921.92
2023-04-06T18:09:39.858Z,99927.43
2023-04-06T18:12:12.419Z,99924.36
2023-04-06T18:14:45.904Z,99931.55
2023-04-06T18:17:19.611Z,99939.09
2023-04-06T18:19:52.214Z,99944.69
2023-04-06T18:22:25.419Z,99947.80
2023-04-06T18:24:59.621Z,99944.08
2023-04-06T18:27:32.405Z,99950.83
2023-04-06T18:30:05.297Z,99948.89
2023-04-06T18:32:38.030Z,99953.02
2023-04-06T18:35:12.593Z,99960.34
2023-04-06T18:37:44.946Z,99961.48
2023-04-06T18:40:34.083Z,99968.45
2023-04-06T18:43:08.620Z,99970.16
2023-04-06T18:45:43.215Z,99971.84
2023-04-06T18:48:16.286Z,99969.91
2023-04-06T18:50:57.871Z,99970.98
2023-04-06T18:53:30.580Z,99977.03
2023-04-06T18:56:04.710Z,99974.09
2023-04-06T18:58:37.177Z,99978.50
2023-04-06T19:01:09.869Z,99978.45
2023-04-06T19:03:43.634Z,99977.65
2023-04-06T19:06:21.160Z,99983.02
2023-04-06T19:08:55.389Z,99977.01
2023-04-06T19:11:29.987Z,99977.23
2023-04-06T19:14:04.338Z,99979.55
2023-04-06T19:16:42.341Z,99978.88
2023-04-06T19:19:17.135Z,99976.77
2023-04-06T19:21:52.297Z,99975.08
2023-04-06T19:24:26.811Z,99972.45
2023-04-06T19:27:00.901Z,99971.73
2023-04-06T19:29:34.430Z,99972.93
2023-04-06T19:32:11.027Z,99973.96
2023-04-06T19:34:44.052Z,99973.23
2023-04-06T19:37:20.143Z,99970.45
2023-04-06T19:39:52.893Z,99968.27
2023-04-06T19:42:26.012Z,99966.77
2023-04-06T19:44:59.436Z,99966.63
2023-04-06T19:47:32.691Z,99963.54
2023-04-06T19:50:05.485Z,99963.03
2023-04-06T19:52:38.556Z,99962.98
2023-04-06T19:55:13.047Z,99960.10
2023-04-06T19:57:45.486Z,99958.64
2023-04-06T20:00:19.247Z,99956.68
2023-04-06T20:02:52.064Z,99954.84
2023-04-06T20:05:25.529Z,99954.85
2023-04-06T20:07:59.035Z,99952.44
2023-04-06T20:10:33.063Z,99955.05
2023-04-06T20:13:07.264Z,99954.30
2023-04-06T20:15:40.671Z,99954.16
2023-04-06T20:18:13.537Z,99953.30
2023-04-06T20:20:46.355Z,99954.79
2023-04-06T20:23:19.151Z,99946.69
2023-04-06T20:25:51.535Z,99943.42
2023-04-06T20:28:24.325Z,99945.36
2023-04-06T20:30:57.061Z,99941.83
2023-04-06T20:33:29.238Z,99938.57
2023-04-06T20:36:03.148Z,99936.05
2023-04-06T20:38:35.871Z,99932.28
2023-04-06T20:41:10.447Z,99931.44
2023-04-06T20:43:42.715Z,99932.25
2023-04-06T20:46:19.754Z,99933.95
2023-04-06T20:48:53.532Z,99928.23
2023-04-06T20:51:26.168Z,99929.98
2023-04-06T20:54:01.220Z,99928.52
2023-04-06T20:56:33.638Z,99920.95
2023-04-06T20:59:06.334Z,99920.93
2023-04-06T21:01:38.653Z,99918.20
2023-04-06T21:04:11.395Z,99919.10
2023-04-06T21:06:43.753Z,99918.73
2023-04-06T21:09:16.072Z,99918.40
2023-04-06T21:11:48.354Z,99921.67
2023-04-06T21:14:21.225Z,99918.84
2023-04-06T21:16:56.057Z,99918.42
2023-04-06T21:19:28.944Z,99913.97
2023-04-06T21:22:01.270Z,99912.67
2023-04-06T21:24:33.427Z,99917.41
2023-04-06T21:27:05.913Z,99923.86
2023-04-06T21:29:38.134Z,99925.90
2023-04-06T21:32:10.294Z,99917.84
2023-04-06T21:34:46.663Z,99915.23
2023-04-06T21:37:19.815Z,99914.42
2023-04-06T21:39:52.448Z,99916.95
2023-04-06T21:42:25.022Z,99915.54
2023-04-06T21:44:59.010Z,99914.77
2023-04-06T21:47:32.137Z,99912.19
2023-04-06T21:50:05.090Z,99911.46
2023-04-06T21:52:37.359Z,99909.02
2023-04-06T21:55:11.168Z,99903.00
2023-04-06T21:57:44.573Z,99905.27
2023-04-06T22:00:20.176Z,99904.00
2023-04-06T22:02:52.655Z,99901.67
2023-04-06T22:05:25.186Z,99898.37
2023-04-06T22:07:57.582Z,99894.48
2023-04-06T22:10:29.813Z,99889.03
2023-04-06T22:13:02.081Z,99887.02
2023-04-06T22:15:34.268Z,99884.52
2023-04-06T22:18:06.624Z,99881.07
2023-04-06T22:20:38.805Z,99879.20
2023-04-06T22:23:11.165Z,99875.10
2023-04-06T22:25:43.328Z,99877.27
2023-04-06T22:28:15.554Z,99873.05
2023-04-06T22:30:47.671Z,99871.71
2023-04-06T22:33:19.975Z,99874.41
2023-04-06T22:35:52.260Z,99870.52
2023-04-06T22:38:24.414Z,99867.20
2023-04-06T22:40:56.670Z,99868.83
2023-04-06T22:43:28.820Z,99867.45
2023-04-06T22:46:00.931Z,99859.63
2023-04-06T22:48:33.131Z,99856.17
2023-04-06T22:51:05.484Z,99855.20
2023-04-06T22:53:37.605Z,99855.80
2023-04-06T22:56:09.870Z,99855.08
2023-04-06T22:58:42.092Z,99852.95
2023-04-06T23:01:14.912Z,99852.13
2023-04-06T23:03:48.225Z,99848.64
2023-04-06T23:06:20.412Z,99847.21
2023-04-06T23:08:52.499Z,99846.78
2023-04-06T23:11:24.738Z,99845.52
2023-04-06T23:13:56.920Z,99841.02
2023-04-06T23:16:29.590Z,99836.73
2023-04-06T23:19:01.706Z,99834.69
2023-04-06T23:21:33.921Z,99831.04
2023-04-06T23:24:06.500Z,99831.83
2023-04-06T23:26:38.601Z,99830.88
2023-04-06T23:29:10.764Z,99827.42
2023-04-06T23:31:43.017Z,99824.67
2023-04-06T23:34:15.276Z,99819.64
2023-04-06T23:36:47.578Z,99821.96
2023-04-06T23:39:19.816Z,99819.16
2023-04-06T23:41:52.019Z,99815.65
2023-04-06T23:44:24.189Z,99815.25
2023-04-06T23:46:56.456Z,99813.08
2023-04-06T23:49:28.808Z,99809.59
2023-04-06T23:52:00.985Z,99807.91
2023-04-06T23:54:33.088Z,99805.56
2023-04-06T23:57:05.199Z,99806.29
2023-04-06T23:59:37.367Z,99807.95
